Time;durP1;ratioP1;P1;durP2;ratioP2;P2;SDS_P1;SDS_P2;PMS_P1;PMS_P2;Temp;Humidity;BMP_temperature;BMP_pressure;BME280_temperature;BME280_humidity;BME280_pressure;Samples;Min_cycle;Max_cycle;Signal;HPM_P1;HPM_P2
2023/03/11 00:00:21;;;;;;;13.00;11.70;;;0.90;61.90;;;;;;5043928;28;20490;-50
2023/03/11 00:02:50;;;;;;;12.83;11.63;;;0.90;62.50;;;;;;5047650;28;20487;-50
2023/03/11 00:05:19;;;;;;;13.37;12.00;;;0.80;63.10;;;;;;5053207;28;20478;-50
2023/03/11 00:07:45;;;;;;;12.00;10.63;;;0.80;63.10;;;;;;5046518;28;20510;-49
2023/03/11 00:10:15;;;;;;;12.20;10.93;;;0.80;63.40;;;;;;5053339;28;20481;-49
2023/03/11 00:12:41;;;;;;;12.40;11.27;;;0.80;63.80;;;;;;5054936;28;20458;-50
2023/03/11 00:15:09;;;;;;;14.00;12.70;;;0.70;63.80;;;;;;5053595;28;20462;-49
2023/03/11 00:17:37;;;;;;;12.40;11.20;;;0.70;64.00;;;;;;5054478;28;20462;-49
2023/03/11 00:20:04;;;;;;;13.67;12.37;;;0.70;64.40;;;;;;5044713;28;20509;-49
2023/03/11 00:22:31;;;;;;;14.13;12.37;;;0.70;64.50;;;;;;5045782;28;20521;-50
2023/03/11 00:24:58;;;;;;;12.43;11.30;;;0.60;65.80;;;;;;5050030;28;20565;-50
2023/03/11 00:27:25;;;;;;;13.80;12.57;;;0.70;66.20;;;;;;5050520;28;20509;-50
2023/03/11 00:29:51;;;;;;;13.40;12.17;;;0.60;65.50;;;;;;5052291;28;20486;-50
2023/03/11 00:32:18;;;;;;;13.97;12.70;;;0.70;66.10;;;;;;5051137;28;20511;-54
2023/03/11 00:34:46;;;;;;;13.00;11.70;;;0.70;66.70;;;;;;5053602;28;20453;-50
2023/03/11 00:37:12;;;;;;;14.07;12.67;;;0.70;66.90;;;;;;5054340;28;20451;-49
2023/03/11 00:39:39;;;;;;;14.70;13.20;;;0.60;66.60;;;;;;5054923;28;20466;-49
2023/03/11 00:42:06;;;;;;;14.43;12.93;;;0.60;66.30;;;;;;5047089;28;20462;-49
2023/03/11 00:44:33;;;;;;;13.07;11.87;;;0.60;67.40;;;;;;5051234;28;20481;-50
2023/03/11 00:46:59;;;;;;;12.90;11.80;;;0.60;66.50;;;;;;5052203;28;20466;-50
2023/03/11 00:49:26;;;;;;;12.60;11.50;;;0.60;66.80;;;;;;5042135;28;20533;-49
2023/03/11 00:51:54;;;;;;;12.37;11.17;;;0.60;67.00;;;;;;5043008;28;20593;-54
2023/03/11 00:54:20;;;;;;;13.13;12.00;;;0.60;67.10;;;;;;5053627;28;20458;-56
2023/03/11 00:56:47;;;;;;;12.57;11.37;;;0.60;67.00;;;;;;5051447;28;20462;-56
2023/03/11 00:59:13;;;;;;;11.03;10.13;;;0.60;66.80;;;;;;5073437;23;20645;-56
2023/03/11 01:01:40;;;;;;;11.17;10.17;;;0.60;66.80;;;;;;5052865;28;20450;-55
2023/03/11 01:04:06;;;;;;;11.03;10.03;;;0.60;65.80;;;;;;5053310;28;20524;-55
2023/03/11 01:06:33;;;;;;;10.03;9.23;;;0.70;66.40;;;;;;5047881;28;20482;-56
2023/03/11 01:09:01;;;;;;;10.20;9.40;;;0.70;65.20;;;;;;5050168;28;20520;-55
2023/03/11 01:11:28;;;;;;;9.33;8.53;;;0.70;65.70;;;;;;5048886;28;20459;-56
2023/03/11 01:13:54;;;;;;;8.40;7.70;;;0.60;66.20;;;;;;5048428;28;21032;-56
2023/03/11 01:16:21;;;;;;;8.20;7.60;;;0.70;66.80;;;;;;5049280;28;20835;-56
2023/03/11 01:18:47;;;;;;;7.30;6.70;;;0.60;66.50;;;;;;5053741;28;20516;-56
2023/03/11 01:21:14;;;;;;;6.77;6.27;;;0.60;67.10;;;;;;5051615;28;20555;-56
2023/03/11 01:23:41;;;;;;;5.17;4.87;;;0.60;68.00;;;;;;5052901;28;20450;-56
2023/03/11 01:26:09;;;;;;;4.53;4.33;;;0.60;67.70;;;;;;5052175;28;20583;-56
2023/03/11 01:28:36;;;;;;;3.63;3.53;;;0.70;68.60;;;;;;5053509;28;20512;-56
2023/03/11 01:31:03;;;;;;;3.80;3.60;;;0.70;69.20;;;;;;5047137;28;20462;-56
2023/03/11 01:33:29;;;;;;;3.30;3.20;;;0.60;68.90;;;;;;5053280;28;20944;-56
2023/03/11 01:35:56;;;;;;;3.00;2.90;;;0.60;69.30;;;;;;5052040;28;20877;-56
2023/03/11 01:38:22;;;;;;;2.70;2.60;;;0.60;68.70;;;;;;5046734;28;20462;-56
2023/03/11 01:40:51;;;;;;;1.90;1.90;;;0.70;68.40;;;;;;5050312;28;20482;-56
2023/03/11 01:43:40;;;;;;;1.80;1.80;;;0.70;66.60;;;;;;5053922;28;20462;-56
2023/03/11 01:46:11;;;;;;;1.93;1.93;;;0.60;67.30;;;;;;5070591;28;20705;-56
2023/03/11 01:48:38;;;;;;;1.40;1.40;;;0.70;66.50;;;;;;5074717;28;21036;-55
2023/03/11 01:51:06;;;;;;;1.70;1.70;;;0.70;66.70;;;;;;5066221;28;20454;-56
2023/03/11 01:53:33;;;;;;;1.43;1.40;;;0.60;66.90;;;;;;5075185;28;20454;-55
2023/03/11 01:56:01;;;;;;;1.37;1.17;;;0.70;67.10;;;;;;5052795;28;20454;-56
2023/03/11 01:58:33;;;;;;;1.40;1.30;;;0.70;66.70;;;;;;5044216;28;20539;-55
2023/03/11 02:01:02;;;;;;;1.60;1.60;;;0.70;66.40;;;;;;5052051;28;20521;-56
2023/03/11 02:03:31;;;;;;;1.13;1.13;;;0.70;63.90;;;;;;5051556;28;20467;-55
2023/03/11 02:06:01;;;;;;;1.50;1.50;;;0.70;65.70;;;;;;5043466;28;20513;-55
2023/03/11 02:08:32;;;;;;;1.30;1.30;;;0.70;65.20;;;;;;5044909;28;20496;-55
2023/03/11 02:11:00;;;;;;;1.20;1.20;;;0.70;64.20;;;;;;5044119;28;20466;-56
2023/03/11 02:13:27;;;;;;;1.10;1.10;;;0.70;65.30;;;;;;5047633;28;20507;-55
2023/03/11 02:15:54;;;;;;;1.23;1.23;;;0.70;64.20;;;;;;5042949;28;20455;-56
2023/03/11 02:18:22;;;;;;;1.10;1.10;;;0.70;63.90;;;;;;5050700;28;20520;-55
2023/03/11 02:20:56;;;;;;;1.33;1.33;;;0.70;63.70;;;;;;5052700;28;20466;-56
2023/03/11 02:23:29;;;;;;;1.30;1.30;;;0.70;62.20;;;;;;5050246;28;20508;-55
2023/03/11 02:26:01;;;;;;;1.20;1.20;;;0.70;63.40;;;;;;5048751;28;20478;-55
2023/03/11 02:28:31;;;;;;;1.20;1.20;;;0.70;62.30;;;;;;5052442;28;20589;-55
2023/03/11 02:30:58;;;;;;;1.30;1.30;;;0.70;61.80;;;;;;5051807;28;20947;-55
2023/03/11 02:33:29;;;;;;;1.17;1.17;;;0.70;62.60;;;;;;5050744;28;20467;-55
2023/03/11 02:35:56;;;;;;;0.97;0.97;;;0.70;62.50;;;;;;5052324;28;20443;-55
2023/03/11 02:38:23;;;;;;;1.27;1.27;;;0.70;62.40;;;;;;5048300;28;20469;-56
2023/03/11 02:40:54;;;;;;;1.27;1.27;;;0.70;62.50;;;;;;5047002;28;20485;-56
2023/03/11 02:43:27;;;;;;;1.00;1.00;;;0.70;62.90;;;;;;5050766;28;20469;-55
2023/03/11 02:45:56;;;;;;;1.17;1.17;;;0.70;62.50;;;;;;5051338;28;20477;-56
2023/03/11 02:48:23;;;;;;;1.10;1.10;;;0.70;61.90;;;;;;5046859;28;20450;-56
2023/03/11 02:50:51;;;;;;;1.20;1.20;;;0.70;61.70;;;;;;5047278;28;20487;-54
2023/03/11 02:53:17;;;;;;;1.20;1.20;;;0.70;61.70;;;;;;5045649;28;20459;-55
2023/03/11 02:55:44;;;;;;;1.30;1.20;;;0.70;61.50;;;;;;5050288;28;20511;-55
2023/03/11 02:58:10;;;;;;;1.50;1.50;;;0.70;61.10;;;;;;5052280;28;20450;-54
2023/03/11 03:00:37;;;;;;;1.60;1.60;;;0.70;61.30;;;;;;5052115;28;20486;-54
2023/03/11 03:03:05;;;;;;;1.70;1.70;;;0.70;61.20;;;;;;5051099;28;20959;-55
2023/03/11 03:05:31;;;;;;;1.30;1.30;;;0.70;60.80;;;;;;5046591;28;20482;-56
2023/03/11 03:07:58;;;;;;;1.63;1.63;;;0.70;61.50;;;;;;5051018;28;20461;-55
2023/03/11 03:10:25;;;;;;;1.80;1.80;;;0.70;61.70;;;;;;5052404;28;20521;-55
2023/03/11 03:12:51;;;;;;;2.13;1.93;;;0.70;62.10;;;;;;5052225;28;20450;-55
2023/03/11 03:15:18;;;;;;;2.30;2.20;;;0.70;61.50;;;;;;5049615;28;20458;-55
2023/03/11 03:17:45;;;;;;;1.90;1.90;;;0.60;62.20;;;;;;5050947;28;20521;-56
2023/03/11 03:20:14;;;;;;;1.77;1.77;;;0.60;63.40;;;;;;5051767;28;21003;-55
2023/03/11 03:22:42;;;;;;;2.40;1.70;;;0.60;64.00;;;;;;5047123;28;20458;-55
2023/03/11 03:25:10;;;;;;;2.33;2.23;;;0.60;64.30;;;;;;5047106;28;20974;-54
2023/03/11 03:27:37;;;;;;;1.83;1.83;;;0.60;65.70;;;;;;5051314;28;20442;-55
2023/03/11 03:30:05;;;;;;;2.27;2.17;;;0.60;65.80;;;;;;5050697;28;20539;-55
2023/03/11 03:32:32;;;;;;;1.90;1.90;;;0.60;66.00;;;;;;5049201;28;20987;-55
2023/03/11 03:34:58;;;;;;;1.83;1.73;;;0.60;66.30;;;;;;5050374;28;20492;-55
2023/03/11 03:37:28;;;;;;;2.40;2.30;;;0.60;66.60;;;;;;5049885;28;20532;-55
2023/03/11 03:39:55;;;;;;;2.00;2.00;;;0.60;66.30;;;;;;5048698;28;20556;-55
2023/03/11 03:42:24;;;;;;;2.00;2.00;;;0.70;65.90;;;;;;5049493;28;20458;-55
2023/03/11 03:44:51;;;;;;;1.97;1.87;;;0.60;66.30;;;;;;5050070;28;20490;-56
2023/03/11 03:47:17;;;;;;;2.20;2.10;;;0.60;66.20;;;;;;5049403;28;20486;-55
2023/03/11 03:49:44;;;;;;;2.60;2.50;;;0.60;65.40;;;;;;5049666;28;20890;-56
2023/03/11 03:52:10;;;;;;;2.00;1.97;;;0.60;65.70;;;;;;5050714;28;20557;-55
2023/03/11 03:54:38;;;;;;;2.17;2.10;;;0.60;65.40;;;;;;5049553;28;20463;-55
2023/03/11 03:57:05;;;;;;;2.20;2.10;;;0.60;65.10;;;;;;5047084;28;21017;-54
2023/03/11 03:59:32;;;;;;;2.33;2.23;;;0.60;65.00;;;;;;5048131;28;20494;-56
2023/03/11 04:01:58;;;;;;;2.33;2.23;;;0.60;64.20;;;;;;5047004;28;21032;-56
2023/03/11 04:04:25;;;;;;;2.43;2.33;;;0.60;65.30;;;;;;5049029;28;20470;-54
2023/03/11 04:06:52;;;;;;;2.40;2.30;;;0.60;65.50;;;;;;5049689;28;20901;-55
2023/03/11 04:09:18;;;;;;;2.67;2.57;;;0.60;66.00;;;;;;5050305;28;20486;-55
2023/03/11 04:11:46;;;;;;;2.47;2.37;;;0.60;66.40;;;;;;5051709;28;20470;-57
2023/03/11 04:14:13;;;;;;;2.63;2.53;;;0.60;66.70;;;;;;5049586;28;20467;-56
2023/03/11 04:16:40;;;;;;;2.37;2.27;;;0.60;67.60;;;;;;5060387;28;20462;-56
2023/03/11 04:19:06;;;;;;;2.70;2.60;;;0.60;65.90;;;;;;5050633;28;20484;-56
2023/03/11 04:21:33;;;;;;;2.43;2.37;;;0.60;64.30;;;;;;5049598;28;20524;-55
2023/03/11 04:24:00;;;;;;;2.17;2.10;;;0.60;65.50;;;;;;5050422;28;20453;-55
2023/03/11 04:26:27;;;;;;;2.60;2.50;;;0.60;65.90;;;;;;5048341;28;20995;-56
2023/03/11 04:28:55;;;;;;;2.10;2.00;;;0.60;66.50;;;;;;5052850;28;20482;-56
2023/03/11 04:31:22;;;;;;;1.90;1.83;;;0.60;66.30;;;;;;5045613;28;20458;-56
2023/03/11 04:33:48;;;;;;;1.70;1.70;;;0.60;66.20;;;;;;5049639;28;20512;-55
2023/03/11 04:36:15;;;;;;;2.10;2.00;;;0.60;65.90;;;;;;5050373;28;20458;-55
2023/03/11 04:38:42;;;;;;;2.17;2.07;;;0.60;66.70;;;;;;5049688;28;20511;-55
2023/03/11 04:41:08;;;;;;;2.27;2.17;;;0.60;66.70;;;;;;5048834;28;20454;-56
2023/03/11 04:43:35;;;;;;;2.13;2.03;;;0.70;66.40;;;;;;5055751;28;20938;-56
2023/03/11 04:46:03;;;;;;;2.20;2.10;;;0.60;65.70;;;;;;5052411;28;20521;-56
2023/03/11 04:48:30;;;;;;;1.80;1.80;;;0.60;64.90;;;;;;5045790;28;20458;-55
2023/03/11 04:50:56;;;;;;;2.20;2.00;;;0.60;61.70;;;;;;5046487;28;20951;-56
2023/03/11 04:53:24;;;;;;;1.63;1.63;;;0.60;61.90;;;;;;5054363;28;20492;-55
2023/03/11 04:55:52;;;;;;;1.40;1.40;;;0.60;62.10;;;;;;5054419;28;20507;-54
2023/03/11 04:58:18;;;;;;;2.03;1.93;;;0.60;61.80;;;;;;5053966;28;20472;-55
2023/03/11 05:00:45;;;;;;;1.80;1.70;;;0.60;62.00;;;;;;5054278;28;20535;-56
2023/03/11 05:03:13;;;;;;;2.30;2.20;;;0.60;61.60;;;;;;5052961;28;20516;-56
2023/03/11 05:05:40;;;;;;;1.73;1.70;;;0.60;61.60;;;;;;5052971;28;20454;-56
2023/03/11 05:08:06;;;;;;;1.70;1.70;;;0.70;61.10;;;;;;5052572;28;20835;-55
2023/03/11 05:10:33;;;;;;;1.77;1.77;;;0.60;60.40;;;;;;5053944;28;20478;-55
2023/03/11 05:13:00;;;;;;;2.20;1.97;;;0.60;60.80;;;;;;5054299;28;20496;-56
2023/03/11 05:15:27;;;;;;;1.70;1.60;;;0.60;60.20;;;;;;5053857;28;20442;-56
2023/03/11 05:17:54;;;;;;;2.50;1.90;;;0.60;60.00;;;;;;5053442;28;20463;-55
2023/03/11 05:20:22;;;;;;;2.20;2.10;;;0.70;60.30;;;;;;5051069;28;20519;-55
2023/03/11 05:22:48;;;;;;;2.50;2.40;;;0.60;60.20;;;;;;5053786;28;20438;-56
2023/03/11 05:25:15;;;;;;;1.90;1.80;;;0.60;60.10;;;;;;5052242;28;20511;-56
2023/03/11 05:27:42;;;;;;;1.77;1.77;;;0.60;60.20;;;;;;5048796;28;20490;-55
2023/03/11 05:30:10;;;;;;;1.90;1.90;;;0.60;60.30;;;;;;5053048;28;20478;-55
2023/03/11 05:32:36;;;;;;;1.70;1.70;;;0.60;60.30;;;;;;5053429;28;20447;-55
2023/03/11 05:35:03;;;;;;;1.97;1.87;;;0.60;60.00;;;;;;5049372;28;20462;-55
2023/03/11 05:37:32;;;;;;;2.20;2.10;;;0.60;60.80;;;;;;5046951;28;20463;-55
2023/03/11 05:39:58;;;;;;;2.10;2.00;;;0.60;60.60;;;;;;5050299;28;20493;-56
2023/03/11 05:42:25;;;;;;;2.10;2.00;;;0.70;60.70;;;;;;5053421;28;20504;-56
2023/03/11 05:44:52;;;;;;;2.00;2.00;;;0.70;59.10;;;;;;5054298;28;20442;-56
2023/03/11 05:47:18;;;;;;;2.20;2.10;;;0.70;58.70;;;;;;5052212;28;21041;-56
2023/03/11 05:49:47;;;;;;;2.07;1.97;;;0.70;57.70;;;;;;5056648;28;20504;-56
2023/03/11 05:52:13;;;;;;;3.67;2.37;;;0.60;57.90;;;;;;5061851;28;20453;-56
2023/03/11 05:54:41;;;;;;;4.67;2.37;;;0.60;58.10;;;;;;5055849;28;20446;-54
2023/03/11 05:57:08;;;;;;;2.77;2.33;;;0.60;58.90;;;;;;5055773;28;20492;-55
2023/03/11 05:59:36;;;;;;;2.13;2.03;;;0.60;59.10;;;;;;5053430;28;20486;-56
2023/03/11 06:02:03;;;;;;;2.90;2.80;;;0.60;59.90;;;;;;5051751;28;20481;-55
2023/03/11 06:04:29;;;;;;;2.70;2.57;;;0.60;60.10;;;;;;5045333;28;20505;-56
2023/03/11 06:06:56;;;;;;;3.07;2.87;;;0.60;60.40;;;;;;5053107;28;20482;-56
2023/03/11 06:09:23;;;;;;;2.53;2.43;;;0.60;60.30;;;;;;5052231;28;20572;-55
2023/03/11 06:11:50;;;;;;;2.00;1.90;;;0.70;59.80;;;;;;5050065;28;20455;-57
2023/03/11 06:14:17;;;;;;;3.10;2.83;;;0.60;58.00;;;;;;5051083;28;20212;-57
2023/03/11 06:16:44;;;;;;;2.23;2.10;;;0.60;58.90;;;;;;5052619;28;20488;-57
2023/03/11 06:19:10;;;;;;;2.37;2.27;;;0.60;58.60;;;;;;5050133;28;20481;-57
2023/03/11 06:21:37;;;;;;;2.30;2.20;;;0.60;58.50;;;;;;5050273;28;20454;-56
2023/03/11 06:24:04;;;;;;;4.70;2.73;;;0.70;57.90;;;;;;5050726;28;20873;-57
2023/03/11 06:26:31;;;;;;;2.87;2.77;;;0.60;56.00;;;;;;5050794;28;20540;-56
2023/03/11 06:28:58;;;;;;;2.80;2.60;;;0.70;55.70;;;;;;5052249;28;20531;-57
2023/03/11 06:31:27;;;;;;;2.60;2.43;;;0.70;55.30;;;;;;5050507;28;20944;-57
2023/03/11 06:33:55;;;;;;;3.10;2.90;;;0.70;54.50;;;;;;5049449;28;20473;-57
2023/03/11 06:36:22;;;;;;;2.90;2.70;;;0.70;54.10;;;;;;5050992;28;20454;-57
2023/03/11 06:38:51;;;;;;;3.03;2.77;;;0.70;53.50;;;;;;5052507;28;20478;-57
2023/03/11 06:41:18;;;;;;;2.70;2.60;;;0.80;53.50;;;;;;5051530;28;20462;-56
2023/03/11 06:43:45;;;;;;;12.73;3.17;;;0.80;53.30;;;;;;5052046;28;20439;-57
2023/03/11 06:46:16;;;;;;;3.00;2.80;;;0.70;55.00;;;;;;5051431;28;21093;-57
2023/03/11 06:48:43;;;;;;;2.97;2.83;;;0.80;53.60;;;;;;5049148;28;20516;-57
2023/03/11 06:51:10;;;;;;;3.00;2.80;;;0.80;53.80;;;;;;5051347;28;20515;-57
2023/03/11 06:53:37;;;;;;;3.50;3.20;;;0.80;55.50;;;;;;5050338;28;20461;-56
2023/03/11 06:56:06;;;;;;;3.17;2.97;;;0.80;56.60;;;;;;5048108;28;20462;-55
2023/03/11 06:58:35;;;;;;;3.20;3.00;;;0.80;58.80;;;;;;5046136;28;20966;-56
2023/03/11 07:01:02;;;;;;;2.43;2.33;;;0.80;60.30;;;;;;5060833;23;21046;-52
2023/03/11 07:03:30;;;;;;;3.50;3.20;;;0.70;64.50;;;;;;5041223;28;20455;-52
2023/03/11 07:05:58;;;;;;;4.47;2.77;;;0.70;70.90;;;;;;5046617;28;20466;-52
2023/03/11 07:08:25;;;;;;;2.80;2.60;;;0.70;73.60;;;;;;5049679;28;20477;-52
2023/03/11 07:11:04;;;;;;;4.63;3.40;;;0.70;76.10;;;;;;5039022;28;20483;-53
2023/03/11 07:13:32;;;;;;;4.33;3.33;;;0.80;71.40;;;;;;5027163;28;20878;-52
2023/03/11 07:16:03;;;;;;;2.90;2.67;;;0.70;71.40;;;;;;5030836;28;20487;-52
2023/03/11 07:18:32;;;;;;;3.60;2.93;;;0.80;74.50;;;;;;5031373;28;20505;-52
2023/03/11 07:20:58;;;;;;;2.90;2.73;;;0.80;80.10;;;;;;5018067;28;21310;-52
2023/03/11 07:23:25;;;;;;;3.27;2.80;;;0.80;78.40;;;;;;5021150;28;20459;-53
2023/03/11 07:25:54;;;;;;;3.43;3.13;;;0.70;91.40;;;;;;5030748;28;20518;-54
2023/03/11 07:28:21;;;;;;;3.00;2.80;;;0.80;86.80;;;;;;5030139;28;20483;-53
2023/03/11 07:30:48;;;;;;;2.73;2.63;;;0.80;90.50;;;;;;5025328;28;20533;-52
2023/03/11 07:33:15;;;;;;;5.93;3.43;;;0.80;96.40;;;;;;5031119;28;20443;-52
2023/03/11 07:35:44;;;;;;;5.43;4.93;;;0.90;94.30;;;;;;5026221;28;21017;-52
2023/03/11 07:38:11;;;;;;;4.77;4.30;;;0.80;99.90;;;;;;5030851;28;20443;-52
2023/03/11 07:40:37;;;;;;;4.63;4.23;;;1.00;95.50;;;;;;5029872;28;20491;-52
2023/03/11 07:43:04;;;;;;;3.87;3.60;;;1.10;99.90;;;;;;5031260;28;20443;-52
2023/03/11 07:45:31;;;;;;;4.73;4.20;;;1.20;99.90;;;;;;5025673;28;20539;-52
2023/03/11 07:47:57;;;;;;;4.03;3.70;;;1.20;99.90;;;;;;5024936;28;21012;-52
2023/03/11 07:50:24;;;;;;;4.07;3.77;;;1.30;99.90;;;;;;5022241;28;20531;-52
2023/03/11 07:52:52;;;;;;;3.40;3.10;;;1.40;99.90;;;;;;5027285;28;20871;-52
2023/03/11 07:55:18;;;;;;;4.17;3.73;;;1.40;99.90;;;;;;5026686;28;20490;-52
2023/03/11 07:57:47;;;;;;;4.03;3.70;;;1.40;99.90;;;;;;5030194;28;20443;-52
2023/03/11 08:00:15;;;;;;;5.30;4.57;;;1.30;99.90;;;;;;5028533;28;20537;-53
2023/03/11 08:02:41;;;;;;;4.47;4.20;;;1.60;99.90;;;;;;5027847;28;21007;-52
2023/03/11 08:05:09;;;;;;;5.37;4.83;;;1.70;99.90;;;;;;5027316;28;21011;-52
2023/03/11 08:07:35;;;;;;;4.27;3.87;;;1.60;99.90;;;;;;5028575;28;20483;-52
2023/03/11 08:10:04;;;;;;;5.10;4.63;;;1.60;99.90;;;;;;5031016;28;20467;-52
2023/03/11 08:12:30;;;;;;;3.80;3.50;;;1.70;99.90;;;;;;5026467;28;20459;-52
2023/03/11 08:14:57;;;;;;;3.73;3.53;;;1.60;99.90;;;;;;5028776;28;20471;-52
2023/03/11 08:17:23;;;;;;;4.30;3.90;;;1.80;99.90;;;;;;5019580;28;20455;-52
2023/03/11 08:19:50;;;;;;;6.27;4.87;;;2.50;1.40;;;;;;5033757;28;20463;-52
2023/03/11 08:22:17;;;;;;;6.00;4.27;;;2.60;99.90;;;;;;5031270;28;20463;-52
2023/03/11 08:24:43;;;;;;;7.43;4.57;;;2.80;99.90;;;;;;5027165;28;20463;-52
2023/03/11 08:27:11;;;;;;;10.93;8.80;;;2.90;99.90;;;;;;5030215;28;20992;-52
2023/03/11 08:29:38;;;;;;;7.90;5.30;;;2.70;99.90;;;;;;5034731;28;20531;-52
2023/03/11 08:32:05;;;;;;;7.43;5.13;;;2.10;99.90;;;;;;5028205;28;20525;-53
2023/03/11 08:34:33;;;;;;;7.50;6.90;;;2.10;99.90;;;;;;5032945;28;20513;-53
2023/03/11 08:37:00;;;;;;;12.13;10.47;;;1.70;99.90;;;;;;5029393;28;20494;-53
2023/03/11 08:39:27;;;;;;;8.80;6.37;;;1.70;99.90;;;;;;5022942;28;20463;-52
2023/03/11 08:41:53;;;;;;;5.00;4.43;;;1.80;99.90;;;;;;5030809;28;20533;-52
2023/03/11 08:44:21;;;;;;;5.80;5.30;;;1.90;99.90;;;;;;5031281;28;20523;-52
2023/03/11 08:46:48;;;;;;;4.57;4.27;;;1.70;99.90;;;;;;5028164;28;20463;-53
2023/03/11 08:49:14;;;;;;;5.47;4.97;;;1.70;99.90;;;;;;5032920;28;20512;-52
2023/03/11 08:51:41;;;;;;;8.50;7.70;;;1.50;99.90;;;;;;5030003;28;20542;-50
2023/03/11 08:54:08;;;;;;;5.07;4.30;;;1.70;99.90;;;;;;5030538;28;20491;-50
2023/03/11 08:56:35;;;;;;;5.80;5.30;;;1.90;99.90;;;;;;5023337;28;20509;-51
2023/03/11 08:59:02;;;;;;;9.30;8.40;;;1.80;99.90;;;;;;5029129;28;20459;-50
2023/03/11 09:01:30;;;;;;;12.33;10.83;;;1.50;99.90;;;;;;5033161;28;20585;-51
2023/03/11 09:03:57;;;;;;;12.97;11.60;;;1.90;99.90;;;;;;5027311;28;20464;-51
2023/03/11 09:06:24;;;;;;;11.83;10.67;;;2.00;99.90;;;;;;5027189;28;20537;-52
2023/03/11 09:08:51;;;;;;;4.80;4.40;;;2.10;99.90;;;;;;5020362;28;20483;-51
2023/03/11 09:11:21;;;;;;;5.20;4.70;;;2.10;99.90;;;;;;5030674;28;20580;-51
2023/03/11 09:13:48;;;;;;;5.33;4.93;;;1.80;99.90;;;;;;5032424;28;20562;-51
2023/03/11 09:16:17;;;;;;;4.07;3.77;;;2.20;99.90;;;;;;5014788;28;20439;-51
2023/03/11 09:18:45;;;;;;;4.30;4.00;;;2.20;99.90;;;;;;5027345;28;20597;-51
2023/03/11 09:21:12;;;;;;;4.93;4.53;;;2.20;99.90;;;;;;5029957;28;20532;-51
2023/03/11 09:23:39;;;;;;;6.70;4.57;;;2.00;99.90;;;;;;5027303;28;20537;-51
2023/03/11 09:26:05;;;;;;;4.10;3.77;;;2.20;99.90;;;;;;5031296;28;20463;-51
2023/03/11 09:28:32;;;;;;;4.27;3.87;;;2.00;99.90;;;;;;5024329;28;20568;-53
2023/03/11 09:30:59;;;;;;;7.70;3.70;;;2.30;99.90;;;;;;5028256;28;20487;-52
2023/03/11 09:33:25;;;;;;;4.20;3.80;;;2.60;99.90;;;;;;5028741;28;20467;-53
2023/03/11 09:35:53;;;;;;;4.10;3.80;;;2.30;99.90;;;;;;5030784;28;20471;-53
2023/03/11 09:38:20;;;;;;;3.80;3.50;;;2.10;99.90;;;;;;5029134;28;20459;-52
2023/03/11 09:40:54;;;;;;;4.03;3.70;;;2.30;99.90;;;;;;5027218;28;20487;-53
2023/03/11 09:43:30;;;;;;;4.23;3.83;;;2.00;99.90;;;;;;5030607;28;20459;-53
2023/03/11 09:46:05;;;;;;;4.77;4.03;;;1.70;99.90;;;;;;5031584;28;20486;-52
2023/03/11 09:48:37;;;;;;;4.60;4.20;;;1.80;99.90;;;;;;5031819;28;20491;-52
2023/03/11 09:51:10;;;;;;;8.00;5.47;;;1.80;99.90;;;;;;5029747;28;20499;-53
2023/03/11 09:53:40;;;;;;;4.20;3.90;;;1.90;99.90;;;;;;5025866;28;20458;-53
2023/03/11 09:56:09;;;;;;;14.73;12.93;;;1.90;99.90;;;;;;5026089;28;20495;-53
2023/03/11 09:58:39;;;;;;;4.50;4.10;;;1.70;99.90;;;;;;5027499;28;20456;-52
2023/03/11 10:01:14;;;;;;;3.47;3.20;;;1.80;99.90;;;;;;5029576;28;20897;-53
2023/03/11 10:03:41;;;;;;;5.70;5.20;;;1.90;99.90;;;;;;5024995;28;20513;-52
2023/03/11 10:06:15;;;;;;;5.30;4.80;;;1.90;99.90;;;;;;5030093;28;20463;-52
2023/03/11 10:08:46;;;;;;;11.57;10.47;;;2.00;99.90;;;;;;5025210;28;20479;-55
2023/03/11 10:11:27;;;;;;;10.43;9.47;;;1.90;99.90;;;;;;5030410;28;20479;-52
2023/03/11 10:14:02;;;;;;;96.70;75.60;;;2.00;99.90;;;;;;5030102;28;20451;-52
2023/03/11 10:16:37;;;;;;;4.70;4.40;;;2.10;99.90;;;;;;5030790;28;20508;-52
2023/03/11 10:19:16;;;;;;;4.13;3.93;;;1.90;99.90;;;;;;5029653;28;20558;-52
2023/03/11 10:21:52;;;;;;;5.80;5.30;;;2.10;99.90;;;;;;5029584;28;20471;-52
2023/03/11 10:24:42;;;;;;;4.80;4.40;;;2.00;99.90;;;;;;5031714;28;20443;-52
2023/03/11 10:27:14;;;;;;;5.10;4.53;;;1.90;99.90;;;;;;5021706;28;21082;-52
2023/03/11 10:29:50;;;;;;;4.60;4.30;;;1.70;99.90;;;;;;5026167;28;20444;-52
2023/03/11 10:32:24;;;;;;;5.20;4.70;;;1.80;99.90;;;;;;5026528;28;20467;-52
2023/03/11 10:34:56;;;;;;;4.40;4.10;;;1.90;99.90;;;;;;5028931;28;20471;-52
2023/03/11 10:37:27;;;;;;;4.47;4.17;;;1.90;99.90;;;;;;5022042;28;20463;-52
2023/03/11 10:39:55;;;;;;;5.30;4.13;;;1.70;99.90;;;;;;5030902;28;20483;-52
2023/03/11 10:42:24;;;;;;;4.70;4.40;;;1.60;99.90;;;;;;5032371;28;20436;-52
2023/03/11 10:44:51;;;;;;;4.00;3.70;;;1.60;99.90;;;;;;5016168;28;20517;-52
2023/03/11 10:47:20;;;;;;;4.80;4.40;;;1.70;99.90;;;;;;5030737;28;20521;-53
2023/03/11 10:49:46;;;;;;;5.10;4.03;;;1.70;99.90;;;;;;5029356;28;20525;-52
2023/03/11 10:52:13;;;;;;;6.20;4.30;;;1.80;99.90;;;;;;5026704;28;20471;-52
2023/03/11 10:54:45;;;;;;;5.80;5.20;;;1.90;99.90;;;;;;5030561;28;20459;-52
2023/03/11 10:57:24;;;;;;;4.53;4.23;;;2.40;99.90;;;;;;5023774;28;20445;-51
2023/03/11 10:59:53;;;;;;;5.13;4.63;;;3.50;99.90;;;;;;5023947;28;20470;-52
2023/03/11 11:02:25;;;;;;;4.73;3.57;;;3.80;34.50;;;;;;5031292;28;20443;-52
2023/03/11 11:05:25;;;;;;;4.63;4.27;;;2.90;62.50;;;;;;5029520;28;20459;-52
2023/03/11 11:08:01;;;;;;;4.47;4.13;;;2.70;56.40;;;;;;5027436;28;20538;-52
2023/03/11 11:10:31;;;;;;;6.77;4.83;;;2.70;27.30;;;;;;5030140;28;20479;-53
2023/03/11 11:13:00;;;;;;;4.50;4.20;;;2.70;99.40;;;;;;5028790;28;20471;-52
2023/03/11 11:15:30;;;;;;;4.93;4.63;;;2.60;81.30;;;;;;5027370;28;20459;-53
2023/03/11 11:17:59;;;;;;;4.47;4.20;;;2.60;99.90;;;;;;5030969;28;20463;-52
2023/03/11 11:20:28;;;;;;;4.67;4.27;;;2.50;99.90;;;;;;5027830;28;20483;-52
2023/03/11 11:22:56;;;;;;;5.50;5.10;;;2.60;21.40;;;;;;5025117;28;20498;-54
2023/03/11 11:25:29;;;;;;;5.57;5.20;;;2.30;28.90;;;;;;5025918;28;20529;-52
2023/03/11 11:27:59;;;;;;;5.40;5.00;;;2.90;99.90;;;;;;5031257;28;20479;-52
2023/03/11 11:30:27;;;;;;;5.97;5.13;;;3.00;99.90;;;;;;5022186;28;20536;-51
2023/03/11 11:32:54;;;;;;;6.50;5.90;;;2.60;33.90;;;;;;5022469;28;20467;-52
2023/03/11 11:35:22;;;;;;;5.93;5.53;;;2.70;26.00;;;;;;5030317;28;20463;-52
2023/03/11 11:37:51;;;;;;;6.23;5.70;;;2.60;37.70;;;;;;5021121;28;20813;-52
2023/03/11 11:40:24;;;;;;;6.13;5.57;;;2.30;28.40;;;;;;5028402;28;20491;-52
2023/03/11 11:42:54;;;;;;;9.03;8.07;;;2.30;36.80;;;;;;5026434;28;20525;-52
2023/03/11 11:45:28;;;;;;;7.93;6.60;;;2.50;21.40;;;;;;5024049;28;20452;-52
2023/03/11 11:47:59;;;;;;;7.80;7.10;;;2.40;99.90;;;;;;5030410;28;20454;-52
2023/03/11 11:50:31;;;;;;;9.00;8.13;;;2.60;99.90;;;;;;5027794;28;20483;-53
2023/03/11 11:53:05;;;;;;;7.00;6.40;;;2.60;99.90;;;;;;5024602;28;20521;-52
2023/03/11 11:55:33;;;;;;;6.07;5.67;;;2.40;99.90;;;;;;5032964;28;20443;-52
2023/03/11 11:58:00;;;;;;;10.60;9.70;;;2.10;57.10;;;;;;5031064;28;20455;-52
2023/03/11 12:00:35;;;;;;;6.63;6.07;;;2.60;99.90;;;;;;5033631;28;21114;-52
2023/03/11 12:03:28;;;;;;;14.40;12.87;;;2.70;25.80;;;;;;5026268;28;20898;-52
2023/03/11 12:05:57;;;;;;;7.27;6.57;;;3.20;99.90;;;;;;5031385;28;20443;-52
2023/03/11 12:08:31;;;;;;;8.57;7.77;;;3.30;42.60;;;;;;5035033;28;20569;-52
2023/03/11 12:11:01;;;;;;;6.70;6.00;;;3.30;60.30;;;;;;5025837;28;20567;-54
2023/03/11 12:13:46;;;;;;;7.23;6.57;;;3.10;46.50;;;;;;5032784;28;20459;-52
2023/03/11 12:16:26;;;;;;;7.27;6.67;;;2.90;49.20;;;;;;5029975;28;20467;-52
2023/03/11 12:18:57;;;;;;;7.50;6.80;;;2.50;48.90;;;;;;5031029;28;20454;-52
2023/03/11 12:21:38;;;;;;;7.97;7.13;;;2.50;24.60;;;;;;5027763;28;20545;-52
2023/03/11 12:24:20;;;;;;;7.30;6.70;;;2.20;27.50;;;;;;5030748;28;20466;-52
2023/03/11 12:26:48;;;;;;;7.70;7.00;;;2.20;99.90;;;;;;5029788;28;20439;-52
2023/03/11 12:29:26;;;;;;;8.73;7.90;;;2.10;77.60;;;;;;5031302;28;20533;-52
2023/03/11 12:31:55;;;;;;;8.70;7.90;;;2.20;99.60;;;;;;5028991;28;20509;-52
2023/03/11 12:34:23;;;;;;;8.70;7.80;;;2.30;24.10;;;;;;5029624;28;20534;-52
2023/03/11 12:36:52;;;;;;;12.63;10.17;;;2.40;46.00;;;;;;5029717;28;20835;-52
2023/03/11 12:39:23;;;;;;;6.97;6.27;;;2.60;33.20;;;;;;5026524;28;20451;-51
2023/03/11 12:42:17;;;;;;;7.30;6.37;;;2.60;45.30;;;;;;5033095;28;20482;-52
2023/03/11 12:44:45;;;;;;;7.73;6.87;;;2.70;65.90;;;;;;5019693;28;20455;-53
2023/03/11 12:47:31;;;;;;;7.50;6.90;;;2.80;74.40;;;;;;5027668;28;20451;-53
2023/03/11 12:50:31;;;;;;;7.07;6.20;;;2.70;99.90;;;;;;5033777;28;20487;-53
2023/03/11 12:52:57;;;;;;;7.93;7.10;;;3.10;99.90;;;;;;5033533;28;20492;-52
2023/03/11 12:55:36;;;;;;;7.40;6.67;;;2.90;21.90;;;;;;5030521;28;21021;-52
2023/03/11 12:58:34;;;;;;;7.00;6.30;;;2.80;99.90;;;;;;5031718;28;20529;-52
2023/03/11 13:01:17;;;;;;;7.63;7.00;;;3.00;99.90;;;;;;5029867;28;20490;-53
2023/03/11 13:04:03;;;;;;;7.07;6.33;;;3.90;99.90;;;;;;5030810;28;20467;-53